TimeEST,TemperatureF,Dew PointF,Humidity,Sea Level PressureIn,VisibilityMPH,Wind Direction,Wind SpeedMPH,Gust SpeedMPH,PrecipitationIn,Events,Conditions,WindDirDegrees,DateUTC
12:53 AM,43.0,39.9,89,30.19,9.0,Calm,Calm,-,N/A,,Clear,0,2012-11-09 05:53:00
1:53 AM,43.0,39.0,86,30.19,10.0,Calm,Calm,-,N/A,,Clear,0,2012-11-09 06:53:00
2:53 AM,42.1,39.0,89,30.19,10.0,Calm,Calm,-,N/A,,Clear,0,2012-11-09 07:53:00
3:53 AM,41.0,37.9,89,30.20,10.0,Calm,Calm,-,N/A,,Clear,0,2012-11-09 08:53:00
4:53 AM,42.1,37.9,85,30.22,10.0,Calm,Calm,-,N/A,,Clear,0,2012-11-09 09:53:00
5:53 AM,41.0,37.0,86,30.23,10.0,Calm,Calm,-,N/A,,Clear,0,2012-11-09 10:53:00
6:53 AM,39.0,36.0,89,30.25,10.0,WSW,3.5,-,N/A,,Clear,240,2012-11-09 11:53:00
7:53 AM,48.9,44.1,83,30.27,10.0,Calm,Calm,-,N/A,,Clear,0,2012-11-09 12:53:00
8:53 AM,55.9,45.0,67,30.28,10.0,NNW,5.8,-,N/A,,Clear,330,2012-11-09 13:53:00
9:53 AM,61.0,43.0,52,30.30,10.0,NW,5.8,-,N/A,,Clear,320,2012-11-09 14:53:00
10:53 AM,64.9,41.0,42,30.30,10.0,Variable,4.6,-,N/A,,Clear,0,2012-11-09 15:53:00
11:53 AM,66.9,37.9,34,30.29,10.0,NNW,4.6,-,N/A,,Clear,330,2012-11-09 16:53:00
12:53 PM,70.0,32.0,25,30.26,10.0,NNW,4.6,-,N/A,,Clear,340,2012-11-09 17:53:00
1:53 PM,70.0,39.9,33,30.25,10.0,ENE,8.1,-,N/A,,Clear,60,2012-11-09 18:53:00
2:53 PM,68.0,41.0,37,30.23,10.0,East,8.1,-,N/A,,Clear,90,2012-11-09 19:53:00
3:53 PM,66.9,41.0,39,30.23,10.0,ENE,8.1,-,N/A,,Clear,70,2012-11-09 20:53:00
4:53 PM,64.0,42.1,45,30.23,10.0,East,5.8,-,N/A,,Clear,100,2012-11-09 21:53:00
5:53 PM,55.9,46.9,72,30.24,10.0,Calm,Calm,-,N/A,,Clear,0,2012-11-09 22:53:00
6:53 PM,52.0,46.0,80,30.24,10.0,Calm,Calm,-,N/A,,Clear,0,2012-11-09 23:53:00
7:53 PM,50.0,44.1,80,30.25,10.0,Calm,Calm,-,N/A,,Clear,0,2012-11-10 00:53:00
8:53 PM,48.9,43.0,80,30.27,10.0,Calm,Calm,-,N/A,,Clear,0,2012-11-10 01:53:00
9:53 PM,48.0,43.0,83,30.27,10.0,Calm,Calm,-,N/A,,Clear,0,2012-11-10 02:53:00
10:53 PM,46.9,42.1,83,30.28,10.0,Calm,Calm,-,N/A,,Clear,0,2012-11-10 03:53:00
11:53 PM,46.0,42.1,86,30.27,10.0,Calm,Calm,-,N/A,,Clear,0,2012-11-10 04:53:00